Time;durP1;ratioP1;P1;durP2;ratioP2;P2;SDS_P1;SDS_P2;PMS_P1;PMS_P2;Temp;Humidity;BMP_temperature;BMP_pressure;BME280_temperature;BME280_humidity;BME280_pressure;Samples;Min_cycle;Max_cycle;Signal;HPM_P1;HPM_P2
2022/07/03 00:01:12;;;;;;;;;;;;;;;23.24;94.97;98206.19;5123917;28;19919;-62
2022/07/03 00:03:39;;;;;;;;;;;;;;;23.24;94.87;98211.63;5122432;28;19928;-62
2022/07/03 00:06:05;;;;;;;;;;;;;;;23.20;94.99;98208.00;5119886;28;19978;-61
2022/07/03 00:08:32;;;;;;;;;;;;;;;23.22;94.94;98202.22;5120493;28;20136;-62
2022/07/03 00:11:00;;;;;;;;;;;;;;;23.19;95.18;98203.69;5123964;28;19924;-62
2022/07/03 00:13:26;;;;;;;;;;;;;;;23.21;94.88;98197.91;5123596;28;19995;-61
2022/07/03 00:15:52;;;;;;;;;;;;;;;23.19;95.09;98198.25;5120360;28;19962;-62
2022/07/03 00:18:19;;;;;;;;;;;;;;;23.03;96.06;98191.84;5120235;28;19952;-64
2022/07/03 00:20:46;;;;;;;;;;;;;;;22.92;97.24;98198.88;5129649;27;19958;-63
2022/07/03 00:23:14;;;;;;;;;;;;;;;22.89;98.29;98202.25;5123361;28;19990;-62
2022/07/03 00:25:41;;;;;;;;;;;;;;;22.91;98.14;98202.72;5122148;28;19931;-63
2022/07/03 00:28:09;;;;;;;;;;;;;;;22.95;98.01;98203.63;5119858;28;19954;-65
2022/07/03 00:30:36;;;;;;;;;;;;;;;22.91;98.30;98202.72;5120385;28;19924;-63
2022/07/03 00:33:03;;;;;;;;;;;;;;;22.84;98.34;98197.03;5123327;28;20356;-61
2022/07/03 00:35:31;;;;;;;;;;;;;;;22.58;99.86;98197.25;5123327;28;19983;-67
2022/07/03 00:37:58;;;;;;;;;;;;;;;22.63;99.58;98190.78;5119561;28;19946;-64
2022/07/03 00:40:25;;;;;;;;;;;;;;;22.48;99.92;98193.00;5119948;28;19956;-63
2022/07/03 00:42:52;;;;;;;;;;;;;;;22.61;99.66;98193.84;5122373;28;19958;-62
2022/07/03 00:45:21;;;;;;;;;;;;;;;22.72;98.16;98195.03;5123184;28;19991;-61
2022/07/03 00:47:48;;;;;;;;;;;;;;;22.79;97.15;98189.06;5120750;28;20359;-62
2022/07/03 00:50:15;;;;;;;;;;;;;;;22.83;96.22;98187.25;5122734;27;20591;-62
2022/07/03 00:52:46;;;;;;;;;;;;;;;22.78;96.06;98190.97;5124626;27;19988;-61
2022/07/03 00:55:16;;;;;;;;;;;;;;;22.70;96.24;98197.31;5122756;28;19958;-62
2022/07/03 00:57:44;;;;;;;;;;;;;;;22.65;96.42;98189.38;5120677;28;19931;-62
2022/07/03 01:00:11;;;;;;;;;;;;;;;22.36;95.18;98184.78;5119028;28;19984;-61
2022/07/03 01:02:46;;;;;;;;;;;;;;;22.25;96.38;98186.28;5119983;28;20434;-62
2022/07/03 01:05:16;;;;;;;;;;;;;;;22.42;97.13;98180.72;5122460;28;19924;-61
2022/07/03 01:07:48;;;;;;;;;;;;;;;22.52;96.09;98193.94;5119872;28;19934;-61
2022/07/03 01:10:20;;;;;;;;;;;;;;;22.61;95.15;98172.06;5118913;28;19924;-62
2022/07/03 01:12:54;;;;;;;;;;;;;;;22.60;94.90;98189.53;5121178;28;20393;-61
2022/07/03 01:15:26;;;;;;;;;;;;;;;22.61;94.46;98185.69;5122408;28;19923;-62
2022/07/03 01:18:03;;;;;;;;;;;;;;;22.63;94.33;98171.72;5118987;28;19939;-62
2022/07/03 01:20:31;;;;;;;;;;;;;;;22.53;94.74;98160.13;5126012;27;19981;-63
2022/07/03 01:23:00;;;;;;;;;;;;;;;22.46;95.03;98162.59;5118323;28;19924;-62
2022/07/03 01:25:28;;;;;;;;;;;;;;;22.31;96.28;98157.75;5118704;28;20022;-61
2022/07/03 01:28:08;;;;;;;;;;;;;;;22.41;95.72;98160.06;5121642;28;19935;-61
2022/07/03 01:30:35;;;;;;;;;;;;;;;22.49;94.92;98161.94;5121484;28;19930;-62
2022/07/03 01:33:03;;;;;;;;;;;;;;;22.52;94.45;98150.38;5118237;28;19951;-62
2022/07/03 01:35:33;;;;;;;;;;;;;;;22.56;93.86;98154.00;5118450;28;19924;-62
2022/07/03 01:38:02;;;;;;;;;;;;;;;22.55;93.77;98155.16;5109868;28;19935;-61
2022/07/03 01:40:29;;;;;;;;;;;;;;;22.55;93.70;98159.78;5109837;28;19928;-62
2022/07/03 01:42:57;;;;;;;;;;;;;;;22.50;93.69;98166.22;5109706;28;19935;-61
2022/07/03 01:45:27;;;;;;;;;;;;;;;22.53;93.31;98167.47;5109839;28;20357;-61
2022/07/03 01:47:53;;;;;;;;;;;;;;;22.44;93.75;98167.56;5109770;28;19959;-61
2022/07/03 01:50:22;;;;;;;;;;;;;;;22.47;93.31;98172.34;5114313;27;19980;-62
2022/07/03 01:52:49;;;;;;;;;;;;;;;22.47;92.97;98176.97;5122899;28;19928;-62
2022/07/03 01:55:15;;;;;;;;;;;;;;;22.43;93.21;98173.34;5121626;28;19924;-62
2022/07/03 01:57:43;;;;;;;;;;;;;;;22.47;92.88;98169.63;5120111;28;19932;-62
2022/07/03 02:00:11;;;;;;;;;;;;;;;22.47;93.06;98179.72;5118014;28;19935;-61
2022/07/03 02:02:40;;;;;;;;;;;;;;;22.43;93.47;98166.00;5119107;28;19924;-62
2022/07/03 02:05:09;;;;;;;;;;;;;;;22.46;93.58;98165.31;5121540;28;19924;-61
2022/07/03 02:07:36;;;;;;;;;;;;;;;22.39;94.27;98175.16;5120815;28;19963;-61
2022/07/03 02:10:05;;;;;;;;;;;;;;;22.30;94.98;98175.22;5117938;28;19924;-62
2022/07/03 02:12:37;;;;;;;;;;;;;;;22.28;95.27;98169.31;5117881;28;20019;-62
2022/07/03 02:15:04;;;;;;;;;;;;;;;21.95;96.60;98174.69;5121422;28;19924;-61
2022/07/03 02:17:36;;;;;;;;;;;;;;;21.22;100.00;98173.28;5121623;28;19919;-61
2022/07/03 02:20:07;;;;;;;;;;;;;;;21.43;100.00;98176.06;5119134;28;19924;-61
2022/07/03 02:22:35;;;;;;;;;;;;;;;21.77;99.85;98172.38;5122254;28;19924;-61
2022/07/03 02:25:03;;;;;;;;;;;;;;;21.91;98.51;98165.59;5125497;28;19924;-62
2022/07/03 02:27:32;;;;;;;;;;;;;;;22.01;97.07;98173.34;5125542;28;19923;-62
2022/07/03 02:30:02;;;;;;;;;;;;;;;21.69;98.42;98162.34;5121897;28;19939;-61
2022/07/03 02:32:30;;;;;;;;;;;;;;;21.54;99.30;98169.13;5121937;28;19928;-62
2022/07/03 02:34:59;;;;;;;;;;;;;;;21.54;100.00;98166.41;5113229;28;20442;-61
2022/07/03 02:37:29;;;;;;;;;;;;;;;21.68;99.82;98163.47;5113385;28;19927;-61
2022/07/03 02:40:00;;;;;;;;;;;;;;;21.76;98.85;98162.63;5121702;28;19935;-62
2022/07/03 02:42:30;;;;;;;;;;;;;;;21.98;96.77;98167.78;5121731;28;19924;-61
2022/07/03 02:44:58;;;;;;;;;;;;;;;22.04;95.95;98163.72;5113222;28;19924;-62
2022/07/03 02:47:28;;;;;;;;;;;;;;;22.07;95.70;98168.50;5113194;28;20403;-61
2022/07/03 02:49:59;;;;;;;;;;;;;;;22.08;95.60;98166.59;5112789;28;19924;-62
2022/07/03 02:52:31;;;;;;;;;;;;;;;22.08;95.50;98163.88;5129347;27;19924;-62
2022/07/03 02:55:00;;;;;;;;;;;;;;;22.08;95.70;98163.88;5121264;28;19928;-63
2022/07/03 02:57:35;;;;;;;;;;;;;;;22.08;95.26;98155.72;5121425;28;19963;-62
2022/07/03 03:00:02;;;;;;;;;;;;;;;22.05;95.51;98170.78;5121181;28;19924;-62
2022/07/03 03:02:49;;;;;;;;;;;;;;;22.10;94.90;98158.91;5121340;28;19950;-62
2022/07/03 03:05:17;;;;;;;;;;;;;;;22.11;94.45;98165.94;5117354;28;19935;-61
2022/07/03 03:07:50;;;;;;;;;;;;;;;22.10;94.36;98178.72;5122675;28;20513;-61
2022/07/03 03:10:19;;;;;;;;;;;;;;;22.05;94.69;98170.78;5124569;28;19924;-61
2022/07/03 03:12:47;;;;;;;;;;;;;;;22.05;94.43;98165.34;5122572;28;19987;-62
2022/07/03 03:15:14;;;;;;;;;;;;;;;21.76;95.35;98177.00;5121021;28;19952;-62
2022/07/03 03:17:42;;;;;;;;;;;;;;;21.80;96.24;98174.44;5122253;28;19947;-61
2022/07/03 03:20:09;;;;;;;;;;;;;;;21.48;98.43;98179.41;5125026;27;19923;-61
2022/07/03 03:22:43;;;;;;;;;;;;;;;21.58;97.93;98174.72;5127116;27;19930;-61
2022/07/03 03:25:11;;;;;;;;;;;;;;;21.67;97.43;98191.75;5124392;28;20011;-62
2022/07/03 03:27:37;;;;;;;;;;;;;;;21.79;96.83;98187.22;5123481;28;19923;-61
2022/07/03 03:30:06;;;;;;;;;;;;;;;21.89;95.99;98177.91;5120717;28;19924;-62
2022/07/03 03:32:35;;;;;;;;;;;;;;;21.95;95.31;98179.31;5120845;28;19948;-62
2022/07/03 03:35:02;;;;;;;;;;;;;;;21.92;95.63;98193.56;5124371;28;19924;-62
2022/07/03 03:37:28;;;;;;;;;;;;;;;21.93;95.76;98195.19;5124313;28;19924;-62
2022/07/03 03:39:54;;;;;;;;;;;;;;;22.01;95.51;98191.59;5120812;28;19924;-62
2022/07/03 03:42:22;;;;;;;;;;;;;;;22.04;95.30;98190.94;5120612;28;19924;-61
2022/07/03 03:44:48;;;;;;;;;;;;;;;21.99;95.83;98193.84;5123177;28;19924;-61
2022/07/03 03:47:15;;;;;;;;;;;;;;;22.01;95.27;98191.59;5123905;28;19955;-61
2022/07/03 03:49:41;;;;;;;;;;;;;;;22.02;95.14;98198.63;5122327;28;19924;-61
2022/07/03 03:52:08;;;;;;;;;;;;;;;22.01;95.49;98199.75;5128207;27;19924;-62
2022/07/03 03:54:34;;;;;;;;;;;;;;;21.97;96.08;98202.31;5120706;28;19947;-62
2022/07/03 03:57:15;;;;;;;;;;;;;;;22.01;95.68;98202.47;5123646;28;19983;-61
2022/07/03 03:59:43;;;;;;;;;;;;;;;21.97;95.90;98190.69;5122196;28;19962;-61
2022/07/03 04:02:09;;;;;;;;;;;;;;;22.01;95.58;98205.19;5120041;28;19983;-62
2022/07/03 04:04:35;;;;;;;;;;;;;;;21.99;95.61;98204.75;5120563;28;19954;-61
2022/07/03 04:07:02;;;;;;;;;;;;;;;21.99;95.45;98208.25;5123261;28;19927;-62
2022/07/03 04:09:28;;;;;;;;;;;;;;;22.01;95.49;98202.47;5123616;28;19974;-62
2022/07/03 04:11:54;;;;;;;;;;;;;;;21.98;95.66;98194.97;5120093;28;19924;-63
2022/07/03 04:14:21;;;;;;;;;;;;;;;22.00;95.43;98195.47;5120055;28;19928;-61
2022/07/03 04:16:48;;;;;;;;;;;;;;;21.94;95.40;98197.56;5122015;28;19924;-60
2022/07/03 04:19:15;;;;;;;;;;;;;;;21.96;95.82;98199.97;5123165;28;19924;-62
2022/07/03 04:21:41;;;;;;;;;;;;;;;22.00;95.27;98190.03;5129593;27;20003;-62
2022/07/03 04:24:08;;;;;;;;;;;;;;;21.88;96.19;98206.22;5119617;28;19924;-62
2022/07/03 04:26:34;;;;;;;;;;;;;;;21.85;96.65;98210.38;5119991;28;19951;-62
2022/07/03 04:29:01;;;;;;;;;;;;;;;21.74;97.44;98202.94;5122821;28;19927;-62
2022/07/03 04:31:27;;;;;;;;;;;;;;;21.67;98.42;98198.00;5122949;28;19923;-62
2022/07/03 04:33:55;;;;;;;;;;;;;;;21.59;99.34;98207.00;5119639;28;19999;-63
2022/07/03 04:36:21;;;;;;;;;;;;;;;21.72;98.16;98205.19;5119603;28;19924;-62
2022/07/03 04:38:47;;;;;;;;;;;;;;;21.37;99.83;98216.22;5121431;28;20020;-61
2022/07/03 04:41:14;;;;;;;;;;;;;;;21.32;100.00;98205.50;5122739;28;19924;-62
2022/07/03 04:43:40;;;;;;;;;;;;;;;21.27;100.00;98210.34;5120531;28;19971;-61
2022/07/03 04:46:06;;;;;;;;;;;;;;;21.03;100.00;98216.28;5119054;28;20323;-62
2022/07/03 04:48:33;;;;;;;;;;;;;;;21.16;100.00;98209.91;5119318;28;19926;-62
2022/07/03 04:51:00;;;;;;;;;;;;;;;21.40;99.15;98206.63;5130296;27;19978;-61
2022/07/03 04:53:27;;;;;;;;;;;;;;;21.12;100.00;98206.22;5122567;28;19924;-61
2022/07/03 04:55:53;;;;;;;;;;;;;;;21.10;100.00;98210.41;5118990;28;19935;-61
2022/07/03 04:58:19;;;;;;;;;;;;;;;21.01;100.00;98215.81;5118799;28;19928;-62
2022/07/03 05:00:46;;;;;;;;;;;;;;;20.79;100.00;98221.47;5120740;28;19956;-62
2022/07/03 05:03:13;;;;;;;;;;;;;;;20.88;100.00;98220.31;5122307;28;20000;-62
2022/07/03 05:05:39;;;;;;;;;;;;;;;21.01;100.00;98222.03;5120923;28;19932;-63
2022/07/03 05:08:07;;;;;;;;;;;;;;;20.72;100.00;98221.94;5118710;28;19971;-63
2022/07/03 05:10:33;;;;;;;;;;;;;;;20.84;100.00;98226.69;5119048;28;19991;-61
2022/07/03 05:13:00;;;;;;;;;;;;;;;20.79;100.00;98232.31;5122151;28;19950;-61
2022/07/03 05:15:26;;;;;;;;;;;;;;;20.92;100.00;98234.06;5122311;28;20021;-62
2022/07/03 05:17:52;;;;;;;;;;;;;;;20.77;100.00;98221.75;5119030;28;19957;-62
2022/07/03 05:20:25;;;;;;;;;;;;;;;21.03;100.00;98232.59;5122861;27;19987;-62
2022/07/03 05:22:51;;;;;;;;;;;;;;;21.01;100.00;98229.41;5122652;28;19928;-61
2022/07/03 05:25:19;;;;;;;;;;;;;;;21.24;100.00;98228.09;5121977;28;19978;-61
2022/07/03 05:27:46;;;;;;;;;;;;;;;21.41;99.68;98221.81;5119842;28;19959;-62
2022/07/03 05:30:12;;;;;;;;;;;;;;;21.17;100.00;98232.44;5118370;28;19996;-62
2022/07/03 05:32:39;;;;;;;;;;;;;;;21.13;100.00;98220.63;5119487;28;19928;-61
2022/07/03 05:35:06;;;;;;;;;;;;;;;21.07;100.00;98228.13;5121677;28;19924;-62
2022/07/03 05:37:32;;;;;;;;;;;;;;;21.11;100.00;98223.63;5121779;28;19951;-62
2022/07/03 05:39:57;;;;;;;;;;;;;;;21.41;100.00;98228.03;5118466;28;19935;-61
2022/07/03 05:42:25;;;;;;;;;;;;;;;21.69;97.90;98230.31;5118579;28;19924;-62
2022/07/03 05:44:51;;;;;;;;;;;;;;;21.78;97.47;98226.44;5121255;28;19957;-61
2022/07/03 05:47:18;;;;;;;;;;;;;;;21.92;94.92;98229.72;5121888;28;19995;-61
2022/07/03 05:49:44;;;;;;;;;;;;;;;22.28;93.38;98234.59;5120013;28;19923;-63
2022/07/03 05:52:11;;;;;;;;;;;;;;;22.39;92.96;98230.38;5126202;28;19934;-62
2022/07/03 05:54:37;;;;;;;;;;;;;;;22.29;93.64;98238.13;5118675;28;19939;-62
2022/07/03 05:57:04;;;;;;;;;;;;;;;22.11;95.37;98237.44;5121397;28;19973;-62
2022/07/03 05:59:31;;;;;;;;;;;;;;;21.84;98.21;98237.91;5121887;28;19924;-61
2022/07/03 06:01:58;;;;;;;;;;;;;;;21.82;100.00;98231.97;5109506;28;19963;-61
2022/07/03 06:04:24;;;;;;;;;;;;;;;21.98;100.00;98231.13;5109533;28;20000;-63
2022/07/03 06:06:51;;;;;;;;;;;;;;;21.88;100.00;98227.97;5109328;28;20152;-61
2022/07/03 06:09:17;;;;;;;;;;;;;;;21.84;100.00;98227.03;5109297;28;19990;-62
2022/07/03 06:11:43;;;;;;;;;;;;;;;22.20;100.00;98226.50;5109296;28;19946;-62
2022/07/03 06:14:10;;;;;;;;;;;;;;;22.27;100.00;98232.22;5109347;28;19956;-62
2022/07/03 06:16:38;;;;;;;;;;;;;;;22.32;100.00;98230.09;5109309;28;19970;-61
2022/07/03 06:19:04;;;;;;;;;;;;;;;22.50;100.00;98230.75;5109161;28;19951;-61
2022/07/03 06:21:30;;;;;;;;;;;;;;;22.55;98.63;98234.09;5125445;28;19970;-62
2022/07/03 06:23:56;;;;;;;;;;;;;;;22.31;99.08;98231.22;5109187;28;19924;-61
2022/07/03 06:26:23;;;;;;;;;;;;;;;22.11;100.00;98233.94;5109264;28;19951;-62
2022/07/03 06:28:49;;;;;;;;;;;;;;;22.30;100.00;98226.91;5109144;28;19987;-61
2022/07/03 06:31:16;;;;;;;;;;;;;;;22.37;100.00;98235.38;5109208;28;19967;-62
2022/07/03 06:33:43;;;;;;;;;;;;;;;22.74;97.21;98232.84;5109157;28;19928;-62
2022/07/03 06:36:10;;;;;;;;;;;;;;;22.89;95.35;98226.78;5109193;28;19969;-62
2022/07/03 06:38:36;;;;;;;;;;;;;;;22.72;92.17;98232.34;5109192;28;19986;-61
2022/07/03 06:41:02;;;;;;;;;;;;;;;22.32;95.99;98230.09;5109023;28;19930;-61
2022/07/03 06:43:29;;;;;;;;;;;;;;;22.23;98.09;98232.09;5109516;28;20493;-61
2022/07/03 06:45:55;;;;;;;;;;;;;;;22.56;95.71;98229.44;5112035;28;19934;-62
2022/07/03 06:48:21;;;;;;;;;;;;;;;22.81;93.66;98230.38;5120923;28;19984;-63
2022/07/03 06:50:49;;;;;;;;;;;;;;;22.92;93.37;98231.53;5124892;28;19967;-62
2022/07/03 06:53:15;;;;;;;;;;;;;;;22.49;95.46;98234.63;5120684;28;19928;-62
2022/07/03 06:55:42;;;;;;;;;;;;;;;22.39;97.49;98230.38;5119289;28;20003;-62
2022/07/03 06:58:08;;;;;;;;;;;;;;;22.22;100.00;98233.19;5117177;28;19959;-63
2022/07/03 07:00:36;;;;;;;;;;;;;;;22.55;99.28;98241.47;5117812;28;19925;-61
2022/07/03 07:03:02;;;;;;;;;;;;;;;22.72;97.55;98232.34;5120845;28;19955;-62
2022/07/03 07:05:29;;;;;;;;;;;;;;;23.01;96.42;98229.53;5120991;28;19958;-62
2022/07/03 07:07:56;;;;;;;;;;;;;;;23.17;95.16;98230.47;5121165;28;19920;-62
2022/07/03 07:10:23;;;;;;;;;;;;;;;23.34;94.64;98232.19;5120818;28;19924;-63
2022/07/03 07:12:50;;;;;;;;;;;;;;;23.36;93.41;98238.94;5123476;28;19924;-63
2022/07/03 07:15:16;;;;;;;;;;;;;;;22.97;95.62;98234.84;5124569;28;19924;-61
2022/07/03 07:17:42;;;;;;;;;;;;;;;22.93;95.70;98244.03;5122667;28;19923;-62
2022/07/03 07:20:09;;;;;;;;;;;;;;;22.73;97.76;98244.84;5122378;27;19924;-62
2022/07/03 07:22:35;;;;;;;;;;;;;;;22.52;98.45;98244.84;5127242;27;19931;-62
2022/07/03 07:25:03;;;;;;;;;;;;;;;22.53;100.00;98244.50;5124214;28;19928;-61
2022/07/03 07:27:30;;;;;;;;;;;;;;;22.51;100.00;98241.31;5124023;28;19931;-62
2022/07/03 07:29:56;;;;;;;;;;;;;;;22.56;100.00;98241.09;5120404;28;19924;-62
2022/07/03 07:32:22;;;;;;;;;;;;;;;22.49;100.00;98240.06;5120668;28;19951;-62
2022/07/03 07:34:49;;;;;;;;;;;;;;;22.28;100.00;98231.09;5122957;28;20075;-62
2022/07/03 07:37:15;;;;;;;;;;;;;;;22.51;100.00;98237.81;5123920;28;19930;-63
2022/07/03 07:39:41;;;;;;;;;;;;;;;22.43;100.00;98231.31;5122437;28;20462;-62
2022/07/03 07:42:09;;;;;;;;;;;;;;;22.28;100.00;98231.88;5120262;28;19919;-62
2022/07/03 07:44:35;;;;;;;;;;;;;;;22.33;100.00;98231.69;5120880;28;20552;-63
2022/07/03 07:47:02;;;;;;;;;;;;;;;22.52;100.00;98223.88;5123783;28;19928;-62
2022/07/03 07:49:28;;;;;;;;;;;;;;;22.71;100.00;98225.34;5123757;28;19923;-62
2022/07/03 07:51:54;;;;;;;;;;;;;;;22.57;100.00;98220.13;5128527;27;19924;-62
2022/07/03 07:54:21;;;;;;;;;;;;;;;22.75;100.00;98223.53;5120272;28;19924;-62
2022/07/03 07:56:47;;;;;;;;;;;;;;;22.51;100.00;98227.72;5122446;28;19954;-63
2022/07/03 07:59:15;;;;;;;;;;;;;;;22.46;100.00;98224.41;5123793;28;19959;-62
2022/07/03 08:07:09;;;;;;;;;;;;;;;22.70;100.00;98221.00;5119902;28;19939;-62
2022/07/03 08:09:35;;;;;;;;;;;;;;;22.70;100.00;98229.97;5120459;28;20022;-62
2022/07/03 08:12:02;;;;;;;;;;;;;;;22.70;100.00;98215.56;5123358;28;19939;-62
2022/07/03 08:14:29;;;;;;;;;;;;;;;22.87;100.00;98229.03;5123392;28;19959;-62
2022/07/03 08:16:56;;;;;;;;;;;;;;;22.94;100.00;98219.19;5119566;28;20019;-62
2022/07/03 08:19:22;;;;;;;;;;;;;;;22.94;100.00;98219.19;5119765;28;19951;-61
2022/07/03 08:21:48;;;;;;;;;;;;;;;23.01;100.00;98213.97;5132097;27;19924;-62
2022/07/03 08:24:16;;;;;;;;;;;;;;;23.19;100.00;98217.31;5119758;28;19939;-62
2022/07/03 08:26:42;;;;;;;;;;;;;;;23.42;100.00;98212.28;5121048;28;19928;-63
2022/07/03 08:29:09;;;;;;;;;;;;;;;23.53;100.00;98218.88;5123104;28;19952;-62
2022/07/03 08:31:36;;;;;;;;;;;;;;;23.49;100.00;98212.50;5122460;28;19930;-62
2022/07/03 08:34:03;;;;;;;;;;;;;;;23.53;99.41;98210.69;5119441;28;19938;-62
2022/07/03 08:36:29;;;;;;;;;;;;;;;23.46;100.00;98207.72;5119443;28;19967;-61
2022/07/03 08:38:56;;;;;;;;;;;;;;;23.33;100.00;98200.66;5122594;28;19962;-62
2022/07/03 08:41:23;;;;;;;;;;;;;;;23.44;100.00;98199.09;5122890;28;19977;-63
2022/07/03 08:43:50;;;;;;;;;;;;;;;23.50;100.00;98204.00;5120193;28;19953;-63
2022/07/03 08:46:17;;;;;;;;;;;;;;;23.62;100.00;98206.72;5119287;28;19928;-62
2022/07/03 08:48:45;;;;;;;;;;;;;;;23.64;100.00;98209.13;5120696;28;19924;-62
2022/07/03 08:51:11;;;;;;;;;;;;;;;23.92;100.00;98201.03;5130684;27;19927;-62
2022/07/03 08:53:38;;;;;;;;;;;;;;;24.10;99.42;98192.25;5103534;28;19927;-63
2022/07/03 08:56:05;;;;;;;;;;;;;;;24.40;97.08;98195.50;5119029;28;19939;-62
2022/07/03 08:58:32;;;;;;;;;;;;;;;24.47;97.75;98197.63;5118910;28;19924;-62
2022/07/03 09:00:58;;;;;;;;;;;;;;;24.37;95.95;98198.91;5110371;28;19930;-62
2022/07/03 09:03:25;;;;;;;;;;;;;;;24.44;96.29;98193.66;5110415;28;19956;-62
2022/07/03 09:05:53;;;;;;;;;;;;;;;24.49;96.14;98198.06;5110340;28;19928;-61
2022/07/03 09:08:20;;;;;;;;;;;;;;;24.55;94.96;98202.16;5110353;28;19931;-62
2022/07/03 09:10:46;;;;;;;;;;;;;;;24.54;95.58;98200.56;5110391;28;19959;-62
2022/07/03 09:13:12;;;;;;;;;;;;;;;24.56;95.62;98201.81;5110346;28;19928;-62
2022/07/03 09:15:41;;;;;;;;;;;;;;;24.93;94.14;98198.94;5109434;28;20117;-62
2022/07/03 09:18:08;;;;;;;;;;;;;;;24.83;94.73;98189.31;5110091;28;20047;-63
2022/07/03 09:20:35;;;;;;;;;;;;;;;24.99;94.01;98181.16;5118792;27;19934;-63
2022/07/03 09:23:16;;;;;;;;;;;;;;;25.09;92.62;98175.16;5122062;28;19923;-62
2022/07/03 09:25:55;;;;;;;;;;;;;;;25.11;93.39;98178.34;5120809;28;19924;-62
2022/07/03 09:28:22;;;;;;;;;;;;;;;25.25;92.63;98178.72;5117838;28;19924;-63
2022/07/03 09:30:57;;;;;;;;;;;;;;;25.45;91.40;98165.91;5120732;28;19984;-62
2022/07/03 09:33:23;;;;;;;;;;;;;;;25.57;91.17;98165.84;5122102;28;19923;-62
2022/07/03 09:35:53;;;;;;;;;;;;;;;25.64;90.57;98157.81;5119546;28;20003;-62
2022/07/03 09:38:20;;;;;;;;;;;;;;;25.86;88.68;98159.09;5118363;28;19960;-63
2022/07/03 09:40:48;;;;;;;;;;;;;;;25.90;89.20;98159.97;5120471;28;19974;-62
2022/07/03 09:43:14;;;;;;;;;;;;;;;25.81;89.22;98162.13;5121744;28;19924;-62
2022/07/03 09:45:51;;;;;;;;;;;;;;;25.84;89.05;98158.66;5120593;28;19955;-61
2022/07/03 09:48:28;;;;;;;;;;;;;;;25.81;88.66;98159.38;5118227;28;19931;-62
2022/07/03 09:51:11;;;;;;;;;;;;;;;25.52;89.24;98155.97;5129326;27;19963;-63
2022/07/03 09:53:56;;;;;;;;;;;;;;;25.62;90.64;98157.38;5120940;28;19924;-63
2022/07/03 09:56:23;;;;;;;;;;;;;;;25.78;90.97;98158.13;5118248;28;19934;-63
2022/07/03 09:59:00;;;;;;;;;;;;;;;25.91;88.85;98154.13;5120804;28;19924;-65
2022/07/03 10:01:26;;;;;;;;;;;;;;;26.08;88.27;98155.69;5121828;28;20007;-62
2022/07/03 10:03:54;;;;;;;;;;;;;;;26.05;85.39;98157.19;5118666;28;19928;-62
2022/07/03 10:06:21;;;;;;;;;;;;;;;26.14;86.52;98149.56;5118056;28;19977;-63
2022/07/03 10:08:48;;;;;;;;;;;;;;;26.36;86.31;98148.09;5119936;28;19958;-61
2022/07/03 10:11:16;;;;;;;;;;;;;;;26.38;84.95;98140.28;5121418;28;19923;-62
2022/07/03 10:13:42;;;;;;;;;;;;;;;26.37;83.98;98135.97;5120182;28;19946;-62
2022/07/03 10:16:09;;;;;;;;;;;;;;;26.56;83.93;98140.63;5117650;28;19924;-62
2022/07/03 10:18:36;;;;;;;;;;;;;;;26.65;83.24;98144.75;5118145;28;19950;-62
2022/07/03 10:21:05;;;;;;;;;;;;;;;26.72;82.86;98142.16;5129185;28;19923;-62
2022/07/03 10:23:32;;;;;;;;;;;;;;;26.66;82.16;98137.31;5121375;28;19946;-62
2022/07/03 10:25:58;;;;;;;;;;;;;;;26.72;82.56;98136.66;5117791;28;20022;-63
2022/07/03 10:28:27;;;;;;;;;;;;;;;26.95;82.91;98138.66;5117810;28;19963;-62
2022/07/03 10:30:53;;;;;;;;;;;;;;;26.85;84.23;98139.25;5120872;28;19950;-62
2022/07/03 10:33:20;;;;;;;;;;;;;;;26.91;81.03;98138.59;5121431;28;19939;-62
2022/07/03 10:35:49;;;;;;;;;;;;;;;27.00;80.55;98132.88;5119120;28;19923;-63
2022/07/03 10:38:34;;;;;;;;;;;;;;;27.04;80.40;98131.00;5117918;28;19991;-62
2022/07/03 10:46:32;;;;;;;;;;;;;;;27.14;80.58;98130.41;5088030;28;19924;-62
2022/07/03 10:48:59;;;;;;;;;;;;;;;26.94;82.21;98120.63;5112973;28;19963;-63
2022/07/03 10:51:26;;;;;;;;;;;;;;;27.10;80.55;98111.13;5133039;27;19983;-62
2022/07/03 10:54:07;;;;;;;;;;;;;;;27.12;80.01;98105.28;5122105;28;20431;-62
2022/07/03 10:56:54;;;;;;;;;;;;;;;27.22;78.41;98113.69;5121173;28;19924;-62
2022/07/03 10:59:22;;;;;;;;;;;;;;;27.29;79.27;98105.59;5124845;28;19949;-63
2022/07/03 11:01:48;;;;;;;;;;;;;;;27.45;80.03;98104.69;5122539;28;19950;-63
2022/07/03 11:04:14;;;;;;;;;;;;;;;27.61;72.71;98105.28;5121253;28;19955;-62
2022/07/03 11:06:59;;;;;;;;;;;;;;;27.61;72.77;98099.81;5122208;28;20086;-62
2022/07/03 11:09:26;;;;;;;;;;;;;;;27.77;67.28;98101.22;5124794;28;19963;-63
2022/07/03 11:11:58;;;;;;;;;;;;;;;27.93;64.81;98089.28;5121604;28;19937;-63
2022/07/03 11:14:26;;;;;;;;;;;;;;;27.95;62.28;98084.19;5121200;28;19931;-62
2022/07/03 11:17:11;;;;;;;;;;;;;;;27.97;63.23;98092.88;5123848;28;19970;-65
2022/07/03 11:19:38;;;;;;;;;;;;;;;27.97;62.15;98085.44;5123830;28;19920;-63
2022/07/03 11:22:10;;;;;;;;;;;;;;;27.94;61.54;98077.13;5129289;27;19924;-62
2022/07/03 11:24:39;;;;;;;;;;;;;;;28.02;60.89;98081.53;5121613;28;19928;-62
2022/07/03 11:27:18;;;;;;;;;;;;;;;28.20;58.86;98082.56;5124313;28;19962;-63
2022/07/03 11:29:50;;;;;;;;;;;;;;;28.13;56.84;98074.28;5122848;28;19924;-61
2022/07/03 11:32:35;;;;;;;;;;;;;;;28.39;47.55;98065.94;5120823;28;20019;-62
2022/07/03 11:35:02;;;;;;;;;;;;;;;28.40;49.17;98065.56;5120688;28;19930;-62
2022/07/03 11:37:29;;;;;;;;;;;;;;;28.19;52.96;98067.28;5120976;28;19949;-61
2022/07/03 11:39:58;;;;;;;;;;;;;;;28.24;51.34;98066.94;5124071;28;19924;-62
2022/07/03 11:42:25;;;;;;;;;;;;;;;28.47;46.92;98058.56;5124126;28;19963;-62
2022/07/03 11:44:52;;;;;;;;;;;;;;;28.41;48.40;98066.34;5121535;28;19924;-64
2022/07/03 11:47:19;;;;;;;;;;;;;;;28.09;51.30;98062.44;5120672;28;20416;-62
2022/07/03 11:49:48;;;;;;;;;;;;;;;28.46;47.90;98063.25;5122001;28;19924;-62
2022/07/03 11:52:14;;;;;;;;;;;;;;;28.72;48.15;98049.41;5130427;27;19924;-62
2022/07/03 11:54:50;;;;;;;;;;;;;;;28.36;51.55;98052.94;5121692;28;19975;-62
2022/07/03 11:57:16;;;;;;;;;;;;;;;28.79;50.04;98046.72;5123797;28;19927;-61
2022/07/03 11:59:43;;;;;;;;;;;;;;;28.63;51.49;98039.88;5122144;28;19955;-62
2022/07/03 12:02:11;;;;;;;;;;;;;;;28.92;48.58;98039.78;5120373;28;19960;-62
2022/07/03 12:04:39;;;;;;;;;;;;;;;29.16;49.32;98045.84;5120928;28;19931;-63
2022/07/03 12:07:05;;;;;;;;;;;;;;;28.41;52.28;98053.41;5123288;28;19966;-62
2022/07/03 12:09:33;;;;;;;;;;;;;;;28.22;53.81;98052.81;5123636;28;19951;-62
2022/07/03 12:12:00;;;;;;;;;;;;;;;28.52;52.56;98034.28;5120184;28;19995;-63
2022/07/03 12:14:36;;;;;;;;;;;;;;;28.84;49.33;98040.13;5120229;28;19928;-63
2022/07/03 12:17:02;;;;;;;;;;;;;;;28.88;48.10;98033.47;5119966;28;19970;-62
2022/07/03 12:19:30;;;;;;;;;;;;;;;29.02;48.58;98032.00;5120284;28;19924;-62
2022/07/03 12:21:57;;;;;;;;;;;;;;;28.58;51.66;98026.47;5132515;27;19929;-63
2022/07/03 12:24:23;;;;;;;;;;;;;;;28.86;48.65;98022.06;5120119;28;19924;-62
2022/07/03 12:26:50;;;;;;;;;;;;;;;28.99;49.85;98030.81;5122151;28;19924;-62
2022/07/03 12:29:17;;;;;;;;;;;;;;;28.93;50.97;98033.13;5123074;28;19935;-62
2022/07/03 12:31:45;;;;;;;;;;;;;;;28.94;51.51;98028.41;5121334;28;19947;-63
2022/07/03 12:34:12;;;;;;;;;;;;;;;29.22;49.03;98033.31;5119500;28;19924;-62
2022/07/03 12:36:40;;;;;;;;;;;;;;;29.34;47.61;98025.56;5120283;28;19953;-62
2022/07/03 12:39:06;;;;;;;;;;;;;;;28.62;51.07;98024.56;5123023;28;19943;-62
2022/07/03 12:41:33;;;;;;;;;;;;;;;28.70;51.38;98027.03;5122819;28;19923;-61
2022/07/03 12:44:00;;;;;;;;;;;;;;;28.60;51.43;98018.63;5119262;28;19924;-62
2022/07/03 12:46:28;;;;;;;;;;;;;;;28.91;49.30;98018.94;5119364;28;19956;-62
2022/07/03 12:48:55;;;;;;;;;;;;;;;28.87;51.63;98023.63;5122303;28;19931;-62
2022/07/03 12:51:39;;;;;;;;;;;;;;;28.70;52.06;98010.53;5131018;27;19923;-62
2022/07/03 12:54:07;;;;;;;;;;;;;;;28.70;52.60;98001.50;5110867;28;19924;-63
2022/07/03 12:56:34;;;;;;;;;;;;;;;28.66;53.29;98000.66;5110653;28;19931;-62
2022/07/03 12:59:17;;;;;;;;;;;;;;;28.90;52.55;98002.84;5110661;28;19931;-62
2022/07/03 13:01:44;;;;;;;;;;;;;;;29.08;52.26;98001.03;5110616;28;19924;-63